| time (UTC) | temp F | wind direction | speed knots | gust knots | rain 1hr in | rain 24hr in | rain mn in | humidity % | barometer mb |
| 20260904095002 | 65 | 113 | 1.7 | 6.1 | 0.00 | 0.00 | 0.00 | 93 | 1020.2 |
| 20260904094004 | 65 | 11 | 1.7 | 4.3 | 0.00 | 0.00 | 0.00 | 93 | 1020.2 |
| 20260904093002 | 65 | 90 | 1.7 | 5.2 | 0.00 | 0.00 | 0.00 | 93 | 1020.3 |
| 20260904092003 | 65 | 31 | 0.9 | 4.3 | 0.00 | 0.00 | 0.00 | 93 | 1020.2 |
| 20260904091002 | 65 | 128 | 1.7 | 4.3 | 0.00 | 0.00 | 0.00 | 93 | 1020.4 |
| 20260904090003 | 65 | 52 | 2.6 | 4.3 | 0.00 | 0.00 | 0.00 | 93 | 1020.3 |
| 20260904085003 | 65 | 36 | 1.7 | 4.3 | 0.00 | 0.00 | 0.00 | 93 | 1020.3 |
| 20260904084003 | 64 | 32 | 0.9 | 4.3 | 0.00 | 0.00 | 0.00 | 93 | 1020.5 |
| 20260904083004 | 64 | 50 | 1.7 | 4.3 | 0.00 | 0.00 | 0.00 | 93 | 1020.5 |
| 20260904082002 | 64 | 80 | 2.6 | 4.3 | 0.00 | 0.00 | 0.00 | 92 | 1020.6 |
| 20260904081003 | 64 | 9 | 1.7 | 2.6 | 0.00 | 0.00 | 0.00 | 92 | 1020.7 |
| 20260904080003 | 65 | 82 | 0.9 | 2.6 | 0.00 | 0.00 | 0.00 | 92 | 1020.5 |
| 20260904075003 | 65 | 114 | 1.7 | 7.0 | 0.00 | 0.00 | 0.00 | 92 | 1020.8 |
| 20260904074003 | 65 | 92 | 0.9 | 4.3 | 0.00 | 0.00 | 0.00 | 91 | 1020.6 |
| 20260904071004 | 65 | 89 | 1.7 | 4.3 | 0.00 | 0.00 | 0.00 | 90 | 1020.7 |
| 20260904070002 | 65 | 75 | 2.6 | 7.8 | 0.00 | 0.00 | 0.00 | 89 | 1021.0 |
| 20260904065004 | 65 | 88 | 1.7 | 6.1 | 0.00 | 0.00 | 0.00 | 89 | 1021.1 |
| 20260904064003 | 66 | 107 | 0.0 | 5.2 | 0.00 | 0.00 | 0.00 | 89 | 1021.0 |
| 20260904062004 | 65 | 96 | 1.7 | 6.1 | 0.00 | 0.00 | 0.00 | 90 | 1021.1 |
| 20260904061003 | 65 | 93 | 1.7 | 6.1 | 0.00 | 0.00 | 0.00 | 90 | 1021.3 |
| 20260904060002 | 65 | 51 | 2.6 | 7.8 | 0.00 | 0.00 | 0.00 | 91 | 1021.3 |
| 20260904055003 | 66 | 157 | 1.7 | 6.1 | 0.00 | 0.00 | 0.00 | 90 | 1021.2 |
| 20260904054003 | 66 | 73 | 2.6 | 5.2 | 0.00 | 0.00 | 0.00 | 90 | 1021.3 |
| 20260904053004 | 66 | 82 | 1.7 | 7.0 | 0.00 | 0.00 | 0.00 | 90 | 1021.4 |
| 20260904052003 | 66 | 113 | 1.7 | 5.2 | 0.00 | 0.00 | 0.00 | 89 | 1021.3 |
| 20260904051003 | 66 | 96 | 1.7 | 6.1 | 0.00 | 0.00 | 0.00 | 89 | 1021.5 |
| 20260904050003 | 66 | 98 | 1.7 | 4.3 | 0.00 | 0.00 | 0.00 | 91 | 1021.5 |
| 20260904045003 | 65 | 0 | 0.9 | 2.6 | 0.00 | 0.00 | 0.00 | 93 | 1021.3 |
| 20260904044002 | 65 | 123 | 0.0 | 1.7 | 0.00 | 0.00 | 0.00 | 93 | 1021.3 |
| 20260904043003 | 65 | 113 | 0.9 | 4.3 | 0.00 | 0.00 | 0.00 | 93 | 1021.4 |
| 20260904042004 | 65 | 341 | 0.9 | 4.3 | 0.00 | 0.00 | 0.00 | 92 | 1021.3 |
| 20260904041003 | 65 | 44 | 2.6 | 6.1 | 0.00 | 0.00 | 0.00 | 91 | 1021.4 |
| 20260904040003 | 66 | 347 | 0.0 | 5.2 | 0.00 | 0.00 | 0.00 | 89 | 1021.5 |
| 20260904035003 | 67 | 26 | 1.7 | 4.3 | 0.00 | 0.00 | 0.00 | 88 | 1021.4 |
| 20260904034003 | 67 | 15 | 2.6 | 5.2 | 0.00 | 0.00 | 0.00 | 88 | 1021.4 |
| 20260904033003 | 67 | 89 | 1.7 | 2.6 | 0.00 | 0.00 | 0.00 | 88 | 1021.2 |
| 20260904032003 | 67 | 7 | 1.7 | 2.6 | 0.00 | 0.00 | 0.00 | 88 | 1021.3 |
| 20260904031003 | 66 | 7 | 0.0 | 2.6 | 0.00 | 0.00 | 0.00 | 88 | 1021.2 |
| 20260904025004 | 66 | 243 | 0.9 | 4.3 | 0.00 | 0.00 | 0.00 | 90 | 1021.5 |
| 20260904024003 | 66 | 338 | 2.6 | 5.2 | 0.00 | 0.00 | 0.00 | 89 | 1021.2 |
| 20260904023003 | 66 | 356 | 2.6 | 7.8 | 0.00 | 0.00 | 0.00 | 88 | 1021.5 |
| 20260904022004 | 66 | 162 | 0.9 | 11.3 | 0.00 | 0.00 | 0.00 | 88 | 1021.4 |
| 20260904021005 | 65 | 129 | 2.6 | 17.4 | 0.00 | 0.00 | 0.00 | 89 | 1021.2 |
| 20260904020004 | 65 | 142 | 9.6 | 19.1 | 0.00 | 0.00 | 0.00 | 91 | 1021.4 |
| 20260904014003 | 64 | 141 | 9.6 | 30.4 | 0.00 | 0.00 | 0.00 | 95 | 1021.6 |
| 20260904012004 | 66 | 130 | 11.3 | 33.0 | 0.00 | 0.00 | 0.00 | 90 | 1021.3 |
| 20260904011003 | 65 | 135 | 9.6 | 25.2 | 0.00 | 0.00 | 0.00 | 91 | 1020.8 |
| 20260904010003 | 66 | 121 | 8.7 | 19.1 | 0.00 | 0.00 | 0.00 | 90 | 1020.6 |
| 20260904005005 | 67 | 147 | 7.8 | 15.6 | 0.00 | 0.00 | 0.00 | 87 | 1020.3 |
| 20260904004006 | 66 | 139 | 6.1 | 20.0 | 0.00 | 0.00 | 0.00 | 88 | 1020.1 |
| 20260904003005 | 65 | 147 | 9.6 | 26.9 | 0.00 | 0.00 | 0.00 | 89 | 1020.5 |
| 20260904002004 | 65 | 154 | 4.3 | 21.7 | 0.00 | 0.00 | 0.00 | 91 | 1020.3 |
| 20260904001003 | 68 | 164 | 7.0 | 20.9 | 0.00 | 0.00 | 0.00 | 91 | 1020.5 |
| 20260904000003 | 72 | 148 | 6.1 | 13.9 | 0.00 | 0.00 | 0.00 | 85 | 1020.3 |
| 20260903234006 | 73 | 140 | 4.3 | 10.4 | 0.00 | 0.00 | 0.00 | 81 | 1019.7 |
| 20260903233003 | 74 | 176 | 4.3 | 11.3 | 0.00 | 0.00 | 0.00 | 76 | 1019.6 |
| 20260903232003 | 74 | 156 | 5.2 | 10.4 | 0.00 | 0.00 | 0.00 | 73 | 1019.4 |
| 20260903231003 | 74 | 230 | 2.6 | 14.8 | 0.00 | 0.00 | 0.00 | 76 | 1019.3 |
| 20260903230003 | 73 | 150 | 6.1 | 10.4 | 0.00 | 0.00 | 0.00 | 80 | 1019.1 |
| 20260903225005 | 72 | 107 | 1.7 | 10.4 | 0.00 | 0.00 | 0.00 | 82 | 1019.2 |
| 20260903224004 | 72 | 158 | 6.1 | 10.4 | 0.00 | 0.00 | 0.00 | 81 | 1019.4 |
| 20260903223005 | 73 | 163 | 5.2 | 8.7 | 0.00 | 0.00 | 0.00 | 77 | 1019.3 |
| 20260903222023 | 73 | 150 | 2.6 | 10.4 | 0.00 | 0.00 | 0.00 | 77 | 1019.3 |
| 20260903221004 | 72 | 139 | 1.7 | 11.3 | 0.00 | 0.00 | 0.00 | 77 | 1019.5 |
| 20260903220003 | 72 | 144 | 3.5 | 17.4 | 0.00 | 0.00 | 0.00 | 80 | 1019.5 |
| 20260903215004 | 73 | 98 | 6.1 | 17.4 | 0.00 | 0.00 | 0.00 | 78 | 1019.9 |
| 20260903214003 | 71 | 94 | 0.9 | 7.0 | 0.00 | 0.00 | 0.00 | 71 | 1019.9 |
| 20260903213004 | 71 | 313 | 2.6 | 7.0 | 0.00 | 0.00 | 0.00 | 73 | 1019.7 |
| 20260903212003 | 71 | 294 | 2.6 | 12.2 | 0.00 | 0.00 | 0.00 | 73 | 1019.8 |
| 20260903211004 | 74 | 270 | 3.5 | 11.3 | 0.00 | 0.00 | 0.00 | 69 | 1019.9 |
| 20260903210003 | 75 | 273 | 5.2 | 18.2 | 0.00 | 0.00 | 0.00 | 68 | 1019.8 |
| 20260903205004 | 79 | 265 | 1.7 | 10.4 | 0.00 | 0.00 | 0.00 | 60 | 1019.5 |
| 20260903204004 | 79 | 121 | 2.6 | 8.7 | 0.00 | 0.00 | 0.00 | 62 | 1019.6 |
| 20260903203003 | 79 | 130 | 2.6 | 11.3 | 0.00 | 0.00 | 0.00 | 60 | 1019.5 |
| 20260903202003 | 82 | 161 | 0.9 | 6.1 | 0.00 | 0.00 | 0.00 | 56 | 1019.5 |
| 20260903201003 | 79 | 167 | 4.3 | 11.3 | 0.00 | 0.00 | 0.00 | 55 | 1019.6 |
| 20260903200003 | 81 | 201 | 4.3 | 13.9 | 0.00 | 0.00 | 0.00 | 52 | 1019.8 |
| 20260903195003 | 81 | 96 | 0.9 | 13.9 | 0.00 | 0.00 | 0.00 | 54 | 1019.9 |
| 20260903194003 | 81 | 204 | 3.5 | 11.3 | 0.00 | 0.00 | 0.00 | 52 | 1020.2 |
| 20260903193004 | 80 | 175 | 4.3 | 11.3 | 0.00 | 0.00 | 0.00 | 54 | 1020.4 |
| 20260903192003 | 78 | 177 | 4.3 | 10.4 | 0.00 | 0.00 | 0.00 | 56 | 1020.3 |
| 20260903190004 | 80 | 168 | 2.6 | 8.7 | 0.00 | 0.00 | 0.00 | 57 | 1020.5 |
| 20260903185006 | 79 | 165 | 3.5 | 8.7 | 0.00 | 0.00 | 0.00 | 56 | 1020.9 |
| 20260903184004 | 78 | 189 | 2.6 | 10.4 | 0.00 | 0.00 | 0.00 | 58 | 1021.1 |
| 20260903183004 | 79 | 165 | 1.7 | 6.1 | 0.00 | 0.00 | 0.00 | 58 | 1021.2 |
| 20260903182013 | 80 | 162 | 2.6 | 7.8 | 0.00 | 0.00 | 0.00 | 57 | 1021.4 |
| 20260903181005 | 78 | 172 | 2.6 | 7.8 | 0.00 | 0.00 | 0.00 | 59 | 1021.5 |
| 20260903180003 | 77 | 79 | 2.6 | 7.0 | 0.00 | 0.00 | 0.00 | 60 | 1021.4 |
| 20260903175003 | 77 | 278 | 1.7 | 4.3 | 0.00 | 0.00 | 0.00 | 58 | 1021.6 |
| 20260903173003 | 76 | 152 | 2.6 | 5.2 | 0.00 | 0.00 | 0.00 | 62 | 1021.8 |
| 20260903172003 | 76 | 295 | 4.3 | 5.2 | 0.00 | 0.00 | 0.00 | 61 | 1022.0 |
| 20260903171003 | 74 | 350 | 2.6 | 4.3 | 0.00 | 0.00 | 0.00 | 62 | 1022.2 |
| 20260903170004 | 74 | 55 | 1.7 | 4.3 | 0.00 | 0.00 | 0.00 | 64 | 1022.4 |
| 20260903165004 | 74 | 11 | 0.9 | 4.3 | 0.00 | 0.00 | 0.00 | 65 | 1022.3 |
| 20260903162004 | 72 | 262 | 1.7 | 5.2 | 0.00 | 0.00 | 0.00 | 71 | 1022.5 |
| 20260903161003 | 73 | 30 | 0.9 | 2.6 | 0.00 | 0.00 | 0.00 | 66 | 1022.4 |
| 20260903160003 | 72 | 90 | 0.9 | 4.3 | 0.00 | 0.00 | 0.00 | 67 | 1022.4 |
| 20260903155003 | 72 | 114 | 1.7 | 5.2 | 0.00 | 0.00 | 0.00 | 69 | 1022.5 |
| 20260903154003 | 69 | 52 | 0.9 | 5.2 | 0.00 | 0.00 | 0.00 | 73 | 1022.6 |
| 20260903153003 | 69 | 141 | 0.0 | 5.2 | 0.00 | 0.00 | 0.00 | 76 | 1022.5 |
| 20260903151004 | 69 | 61 | 0.9 | 4.3 | 0.00 | 0.00 | 0.00 | 77 | 1022.6 |
| 20260903150004 | 70 | 65 | 2.6 | 4.3 | 0.00 | 0.00 | 0.00 | 78 | 1022.3 |
| 20260903145004 | 71 | 67 | 1.7 | 5.2 | 0.00 | 0.00 | 0.00 | 78 | 1022.4 |
| 20260903144004 | 70 | 69 | 1.7 | 5.2 | 0.00 | 0.00 | 0.00 | 78 | 1022.3 |
| 20260903142008 | 66 | 328 | 0.9 | 2.6 | 0.00 | 0.00 | 0.00 | 85 | 1022.4 |
| 20260903141005 | 67 | 20 | 0.9 | 2.6 | 0.00 | 0.00 | 0.00 | 86 | 1022.1 |
| 20260903140004 | 67 | 298 | 0.0 | 1.7 | 0.00 | 0.00 | 0.00 | 85 | 1022.1 |
| 20260903134003 | 66 | 80 | 0.9 | 2.6 | 0.00 | 0.00 | 0.00 | 86 | 1022.1 |
| 20260903132005 | 66 | 105 | 0.9 | 1.7 | 0.00 | 0.00 | 0.00 | 89 | 1022.0 |
| 20260903130003 | 66 | 43 | 0.9 | 1.7 | 0.00 | 0.00 | 0.00 | 90 | 1021.8 |
| 20260903125003 | 66 | 73 | 0.9 | 2.6 | 0.00 | 0.00 | 0.00 | 90 | 1021.7 |
| 20260903124004 | 66 | 56 | 1.7 | 4.3 | 0.00 | 0.00 | 0.00 | 88 | 1021.8 |
| 20260903123004 | 66 | 358 | 1.7 | 2.6 | 0.00 | 0.00 | 0.00 | 88 | 1021.5 |
| 20260903122004 | 67 | 3 | 0.9 | 1.7 | 0.00 | 0.00 | 0.00 | 88 | 1021.5 |
| 20260903121004 | 67 | 51 | 0.0 | 1.7 | 0.00 | 0.00 | 0.00 | 86 | 1021.4 |
| 20260903120004 | 67 | 82 | 0.9 | 1.7 | 0.00 | 0.00 | 0.00 | 85 | 1021.4 |
| 20260903115003 | 67 | 67 | 0.9 | 2.6 | 0.00 | 0.00 | 0.00 | 84 | 1021.3 |
| 20260903114003 | 67 | 94 | 1.7 | 2.6 | 0.00 | 0.00 | 0.00 | 85 | 1021.5 |
| 20260903113004 | 67 | 101 | 0.9 | 2.6 | 0.00 | 0.00 | 0.00 | 85 | 1021.5 |
| 20260903112004 | 67 | 128 | 1.7 | 2.6 | 0.00 | 0.00 | 0.00 | 85 | 1021.5 |
| 20260903111003 | 67 | 88 | 0.9 | 4.3 | 0.00 | 0.00 | 0.00 | 85 | 1021.5 |
| 20260903110004 | 67 | 71 | 2.6 | 4.3 | 0.00 | 0.00 | 0.00 | 85 | 1021.3 |
| 20260903105003 | 67 | 70 | 2.6 | 4.3 | 0.00 | 0.00 | 0.00 | 85 | 1021.4 |
| 20260903104005 | 67 | 106 | 0.9 | 2.6 | 0.00 | 0.00 | 0.00 | 86 | 1021.4 |
| 20260903103003 | 67 | 106 | 1.7 | 2.6 | 0.00 | 0.00 | 0.00 | 87 | 1021.6 |
| 20260903102004 | 67 | 114 | 0.9 | 1.7 | 0.00 | 0.00 | 0.00 | 88 | 1021.5 |
| 20260903101003 | 67 | 71 | 0.0 | 4.3 | 0.00 | 0.00 | 0.00 | 88 | 1021.6 |